Time;durP1;ratioP1;P1;durP2;ratioP2;P2;SDS_P1;SDS_P2;PMS_P1;PMS_P2;Temp;Humidity;BMP_temperature;BMP_pressure;BME280_temperature;BME280_humidity;BME280_pressure;Samples;Min_cycle;Max_cycle;Signal;HPM_P1;HPM_P2
2022/09/11 00:01:39;;;;;;;13.40;7.90;;;;;;;14.04;74.97;99842.23;103700;1275;108869;-68
2022/09/11 00:04:08;;;;;;;12.50;8.10;;;;;;;14.06;75.06;99843.04;103407;1277;94401;-66
2022/09/11 00:06:37;;;;;;;12.60;8.10;;;;;;;14.08;74.74;99846.71;107421;1275;138466;-66
2022/09/11 00:09:06;;;;;;;11.90;7.90;;;;;;;14.12;74.97;99842.23;107543;1275;108204;-66
2022/09/11 00:11:39;;;;;;;11.80;8.00;;;;;;;14.18;74.72;99840.69;106297;1276;1567466;-67
2022/09/11 00:14:12;;;;;;;11.60;8.00;;;;;;;14.21;74.66;99838.54;107491;1276;108666;-67
2022/09/11 00:16:43;;;;;;;12.90;9.00;;;;;;;14.20;74.53;99836.98;105495;1276;94405;-66
2022/09/11 00:19:15;;;;;;;11.60;8.30;;;;;;;14.23;74.52;99835.27;103417;1277;138283;-67
2022/09/11 00:21:44;;;;;;;11.50;8.10;;;;;;;14.24;74.28;99833.25;103480;1276;108324;-68
2022/09/11 00:24:12;;;;;;;11.60;7.90;;;;;;;14.21;74.44;99833.73;103600;1276;138427;-66
2022/09/11 00:26:41;;;;;;;12.70;8.40;;;;;;;14.20;74.51;99833.08;103470;1277;108689;-68
2022/09/11 00:29:09;;;;;;;11.70;7.80;;;;;;;14.17;74.71;99830.55;103272;1277;139016;-69
2022/09/11 00:31:37;;;;;;;12.60;8.00;;;;;;;14.18;74.80;99829.40;103506;1276;94391;-67
2022/09/11 00:34:05;;;;;;;11.90;8.10;;;;;;;14.16;74.73;99824.67;103882;1275;108692;-67
2022/09/11 00:36:38;;;;;;;11.10;7.60;;;;;;;14.15;74.84;99821.73;103426;1276;138267;-67
2022/09/11 00:39:06;;;;;;;9.00;6.10;;;;;;;14.08;75.19;99819.41;103470;1277;109372;-67
2022/09/11 00:41:39;;;;;;;9.30;6.50;;;;;;;14.01;75.24;99819.92;103644;1277;139135;-66
2022/09/11 00:44:15;;;;;;;10.50;7.00;;;;;;;14.00;75.48;99818.36;103523;1276;94727;-67
2022/09/11 00:46:52;;;;;;;10.40;6.70;;;;;;;14.04;75.50;99810.99;103499;1277;108517;-67
2022/09/11 00:49:40;;;;;;;9.60;6.10;;;;;;;14.11;75.38;99807.44;103349;1276;99823;-66
2022/09/11 00:52:20;;;;;;;9.10;6.30;;;;;;;14.12;75.30;99804.36;103591;1276;108672;-66
2022/09/11 00:55:15;;;;;;;9.90;6.00;;;;;;;14.13;75.20;99803.98;103523;1276;137930;-66
2022/09/11 00:57:54;;;;;;;9.60;6.20;;;;;;;14.15;75.32;99801.91;103525;1276;94329;-66
2022/09/11 01:00:29;;;;;;;9.10;5.70;;;;;;;14.13;75.30;99799.88;103472;1274;138791;-68
2022/09/11 01:02:57;;;;;;;10.70;6.40;;;;;;;14.13;75.44;99802.20;103921;1274;98969;-66
2022/09/11 01:05:32;;;;;;;8.40;5.80;;;;;;;14.07;75.28;99802.30;103471;1274;138713;-66
2022/09/11 01:08:02;;;;;;;8.60;5.60;;;;;;;14.07;75.48;99800.16;103579;1277;94998;-67
2022/09/11 01:10:38;;;;;;;9.20;5.70;;;;;;;14.07;75.43;99796.92;103571;1274;94844;-67
2022/09/11 01:13:33;;;;;;;8.80;5.80;;;;;;;14.13;75.42;99797.38;103439;1274;138576;-67
2022/09/11 01:16:37;;;;;;;8.50;5.60;;;;;;;14.18;75.30;99794.97;103484;1276;100064;-66
2022/09/11 01:19:36;;;;;;;7.70;5.00;;;;;;;14.24;75.26;99794.65;103709;1276;138652;-65
2022/09/11 01:22:30;;;;;;;8.30;5.30;;;;;;;14.22;75.04;99791.17;103625;1276;94801;-66
2022/09/11 01:25:21;;;;;;;8.30;5.80;;;;;;;14.13;75.35;99789.69;103502;1276;137746;-66
2022/09/11 01:28:15;;;;;;;8.10;5.70;;;;;;;14.12;75.40;99790.65;104012;1277;107897;-68
2022/09/11 01:30:49;;;;;;;8.70;6.00;;;;;;;14.11;75.55;99791.05;103598;1276;138667;-67
2022/09/11 01:33:29;;;;;;;9.30;6.00;;;;;;;14.08;75.63;99788.16;103490;1276;108835;-67
2022/09/11 01:36:04;;;;;;;9.60;6.60;;;;;;;14.01;75.56;99785.62;103525;1275;137686;-68
2022/09/11 01:38:39;;;;;;;10.40;6.50;;;;;;;13.97;75.85;99782.98;103579;1277;94765;-66
2022/09/11 01:41:10;;;;;;;9.80;6.80;;;;;;;13.90;76.08;99776.22;103464;1277;139071;-65
2022/09/11 01:43:50;;;;;;;10.20;6.60;;;;;;;13.85;76.24;99775.39;103527;1276;99705;-66
2022/09/11 01:46:21;;;;;;;11.20;7.40;;;;;;;13.82;76.42;99771.40;103676;1276;108863;-67
2022/09/11 01:49:05;;;;;;;10.00;6.70;;;;;;;13.80;76.51;99776.16;103762;1277;138392;-67
2022/09/11 01:51:36;;;;;;;9.40;6.30;;;;;;;13.78;76.66;99771.43;103379;1277;94727;-68
2022/09/11 01:54:11;;;;;;;9.60;6.80;;;;;;;13.75;77.01;99768.73;103720;1277;138506;-69
2022/09/11 01:56:45;;;;;;;9.00;6.20;;;;;;;13.79;76.87;99768.20;103572;1276;100029;-67
2022/09/11 01:59:18;;;;;;;10.10;6.90;;;;;;;13.82;76.73;99774.64;103481;1276;137809;-68
2022/09/11 02:01:52;;;;;;;9.80;6.60;;;;;;;13.77;76.74;99775.39;103547;1277;94315;-67
2022/09/11 02:04:28;;;;;;;11.20;7.20;;;;;;;13.75;76.98;99775.50;103553;1276;94590;-67
2022/09/11 02:07:05;;;;;;;12.80;7.70;;;;;;;13.78;77.10;99773.77;103455;1276;138946;-68
2022/09/11 02:09:39;;;;;;;14.90;8.10;;;;;;;13.79;76.95;99772.11;103503;1277;99767;-68
2022/09/11 02:12:12;;;;;;;12.30;7.60;;;;;;;13.76;77.02;99773.52;103438;1276;138240;-69
2022/09/11 02:14:42;;;;;;;10.80;7.70;;;;;;;13.68;77.17;99772.45;103526;1277;94691;-68
2022/09/11 02:17:13;;;;;;;10.90;7.30;;;;;;;13.64;77.32;99771.41;103488;1276;139115;-69
2022/09/11 02:19:42;;;;;;;11.20;7.70;;;;;;;13.61;77.44;99769.09;103408;1277;108634;-69
2022/09/11 02:22:10;;;;;;;11.80;8.00;;;;;;;13.60;77.45;99770.76;103534;1276;99431;-69
2022/09/11 02:24:38;;;;;;;11.40;8.30;;;;;;;13.61;77.61;99776.23;103343;1277;139119;-70
2022/09/11 02:27:11;;;;;;;12.50;8.50;;;;;;;13.60;77.52;99773.58;103637;1276;94960;-70
2022/09/11 02:29:39;;;;;;;13.00;9.00;;;;;;;13.57;77.79;99770.87;103604;1276;139248;-69
2022/09/11 02:32:09;;;;;;;12.80;9.70;;;;;;;13.57;77.77;99774.07;103452;1277;108672;-69
2022/09/11 02:34:41;;;;;;;13.90;10.20;;;;;;;13.58;77.71;99768.86;103601;1276;97863;-69
2022/09/11 02:37:19;;;;;;;15.10;10.80;;;;;;;13.57;77.63;99769.45;103496;1276;138358;-68
2022/09/11 02:40:06;;;;;;;15.80;11.00;;;;;;;13.54;77.81;99766.35;103664;1276;94364;-70
2022/09/11 02:42:43;;;;;;;16.10;11.10;;;;;;;13.54;77.95;99766.18;103411;1276;139336;-69
2022/09/11 02:45:30;;;;;;;15.30;11.50;;;;;;;13.52;77.79;99762.38;103579;1276;108479;-69
2022/09/11 02:48:11;;;;;;;17.10;12.90;;;;;;;13.55;77.70;99764.52;103332;1277;139317;-69
2022/09/11 02:50:47;;;;;;;17.00;12.10;;;;;;;13.55;77.68;99765.45;103356;1277;108836;-68
2022/09/11 02:53:58;;;;;;;15.60;12.00;;;;;;;13.55;77.61;99764.55;103390;1276;139121;-69
2022/09/11 02:56:31;;;;;;;16.10;12.10;;;;;;;13.59;77.21;99763.46;103681;1276;94370;-69
2022/09/11 02:59:05;;;;;;;16.50;12.40;;;;;;;13.58;77.34;99762.64;103555;1275;138849;-68
2022/09/11 03:01:55;;;;;;;16.10;12.10;;;;;;;13.56;77.28;99765.23;103609;1276;99547;-68
2022/09/11 03:04:24;;;;;;;16.40;12.20;;;;;;;13.59;77.40;99758.85;103994;1276;109017;-69
2022/09/11 03:06:55;;;;;;;16.20;11.90;;;;;;;13.60;77.23;99759.13;103488;1276;139255;-71
2022/09/11 03:09:23;;;;;;;16.60;12.50;;;;;;;13.56;77.11;99755.95;103409;1277;94691;-69
2022/09/11 03:11:54;;;;;;;16.80;12.50;;;;;;;13.49;77.16;99756.79;103282;1276;138878;-69
2022/09/11 03:14:22;;;;;;;17.00;12.50;;;;;;;13.45;77.39;99752.38;103527;1276;99823;-70
2022/09/11 03:16:50;;;;;;;17.20;11.90;;;;;;;13.41;77.56;99748.84;103472;1276;138749;-69
2022/09/11 03:19:18;;;;;;;18.20;12.40;;;;;;;13.41;77.49;99752.41;103431;1277;94757;-69
2022/09/11 03:21:46;;;;;;;17.80;12.90;;;;;;;13.43;77.56;99751.05;103391;1277;94266;-68
2022/09/11 03:24:15;;;;;;;17.30;12.60;;;;;;;13.44;77.57;99747.42;103481;1277;138361;-70
2022/09/11 03:26:44;;;;;;;17.90;12.20;;;;;;;13.41;77.45;99748.48;103691;1277;100106;-69
2022/09/11 03:29:12;;;;;;;16.40;12.10;;;;;;;13.36;77.70;99746.36;103435;1276;138969;-72
2022/09/11 03:31:41;;;;;;;16.80;12.00;;;;;;;13.32;78.06;99747.77;103539;1276;95398;-67
2022/09/11 03:34:09;;;;;;;17.90;12.30;;;;;;;13.33;77.91;99742.55;103604;1276;94396;-69
2022/09/11 03:36:37;;;;;;;17.00;11.60;;;;;;;13.35;77.99;99739.61;103576;1276;138375;-66
2022/09/11 03:39:05;;;;;;;17.10;11.80;;;;;;;13.34;77.87;99743.95;103584;1276;99379;-68
2022/09/11 03:41:33;;;;;;;16.30;11.00;;;;;;;13.33;77.92;99743.27;103512;1276;139425;-69
2022/09/11 03:44:01;;;;;;;16.10;11.30;;;;;;;13.34;78.16;99744.83;103589;1276;94640;-69
2022/09/11 03:46:29;;;;;;;15.70;11.50;;;;;;;13.38;77.95;99743.09;103596;1276;94327;-70
2022/09/11 03:48:58;;;;;;;15.30;10.90;;;;;;;13.36;78.00;99746.88;103462;1276;138390;-70
2022/09/11 03:51:26;;;;;;;16.30;11.00;;;;;;;13.41;77.89;99744.02;103613;1276;98242;-69
2022/09/11 03:53:58;;;;;;;16.40;11.10;;;;;;;13.41;77.80;99741.31;103477;1276;139609;-69
2022/09/11 03:56:27;;;;;;;14.80;10.30;;;;;;;13.39;77.79;99743.54;103623;1276;94454;-71
2022/09/11 03:58:57;;;;;;;13.80;9.80;;;;;;;13.35;77.77;99739.98;103395;1277;139003;-70
2022/09/11 04:01:25;;;;;;;15.00;10.30;;;;;;;13.31;77.91;99742.64;103708;1276;107883;-71
2022/09/11 04:03:53;;;;;;;14.60;10.30;;;;;;;13.25;78.01;99742.94;103647;1276;99509;-69
2022/09/11 04:06:31;;;;;;;14.20;10.20;;;;;;;13.25;78.01;99745.10;103464;1277;139171;-68
2022/09/11 04:08:59;;;;;;;15.20;10.90;;;;;;;13.24;78.03;99742.47;103698;1277;95593;-71
2022/09/11 04:11:27;;;;;;;15.10;9.80;;;;;;;13.21;77.99;99745.09;103547;1277;138717;-68
2022/09/11 04:13:55;;;;;;;14.00;10.00;;;;;;;13.19;78.22;99740.37;103494;1276;109823;-68
2022/09/11 04:16:24;;;;;;;14.70;10.10;;;;;;;13.20;78.31;99739.81;103396;1277;97436;-69
2022/09/11 04:18:54;;;;;;;15.50;10.10;;;;;;;13.25;78.46;99739.95;103574;1276;139334;-68
2022/09/11 04:21:23;;;;;;;14.10;9.80;;;;;;;13.30;78.18;99740.55;103329;1276;94321;-69
2022/09/11 04:23:54;;;;;;;14.40;10.10;;;;;;;13.33;77.85;99738.64;103405;1276;138790;-67
2022/09/11 04:26:24;;;;;;;13.10;9.60;;;;;;;13.34;77.96;99739.64;103568;1277;108452;-68
2022/09/11 04:29:00;;;;;;;13.90;9.50;;;;;;;13.35;77.90;99739.60;103636;1276;139110;-68
2022/09/11 04:31:28;;;;;;;14.50;10.50;;;;;;;13.38;77.79;99741.27;103463;1276;108747;-69
2022/09/11 04:33:56;;;;;;;14.50;9.90;;;;;;;13.36;77.62;99738.36;103567;1276;94441;-68
2022/09/11 04:36:28;;;;;;;14.70;9.90;;;;;;;13.34;77.92;99741.24;103293;1276;138581;-69
2022/09/11 04:38:59;;;;;;;14.10;9.70;;;;;;;13.34;77.98;99741.08;103348;1276;107722;-68
2022/09/11 04:41:27;;;;;;;13.00;9.30;;;;;;;13.34;78.08;99737.34;103345;1276;139057;-68
2022/09/11 04:44:02;;;;;;;15.70;10.70;;;;;;;13.38;78.04;99735.23;103270;1277;108680;-71
2022/09/11 04:46:33;;;;;;;15.50;10.60;;;;;;;13.40;78.01;99733.88;103395;1276;94667;-69
2022/09/11 04:49:02;;;;;;;14.80;10.30;;;;;;;13.40;77.73;99731.74;103474;1276;138467;-69
2022/09/11 04:51:33;;;;;;;14.10;10.10;;;;;;;13.39;77.87;99730.01;103363;1276;107574;-69
2022/09/11 04:54:02;;;;;;;13.90;9.20;;;;;;;13.38;78.09;99728.78;103233;1277;139428;-67
2022/09/11 04:56:39;;;;;;;14.30;9.70;;;;;;;13.41;77.81;99729.55;103330;1277;108833;-71
2022/09/11 04:59:14;;;;;;;14.60;10.20;;;;;;;13.37;77.82;99729.55;103614;1277;138755;-68
2022/09/11 05:01:49;;;;;;;13.30;9.20;;;;;;;13.34;77.86;99728.80;103518;1276;94876;-71
2022/09/11 05:04:17;;;;;;;13.80;9.20;;;;;;;13.34;77.88;99726.13;103334;1277;108535;-68
2022/09/11 05:06:52;;;;;;;13.60;9.00;;;;;;;13.33;77.84;99727.40;103368;1276;138493;-71
2022/09/11 05:09:19;;;;;;;14.80;9.40;;;;;;;13.35;77.86;99727.68;103301;1277;108837;-67
2022/09/11 05:11:47;;;;;;;13.20;9.00;;;;;;;13.32;77.90;99726.56;103306;1276;138433;-68
2022/09/11 05:14:17;;;;;;;12.70;8.70;;;;;;;13.30;77.81;99722.77;103595;1276;94756;-70
2022/09/11 05:16:47;;;;;;;12.70;8.70;;;;;;;13.30;77.91;99721.86;103357;1277;108425;-68
2022/09/11 05:19:16;;;;;;;12.50;8.40;;;;;;;13.35;77.91;99720.37;103663;1276;100029;-70
2022/09/11 05:21:47;;;;;;;13.00;8.80;;;;;;;13.34;77.83;99720.39;103735;1276;107793;-69
2022/09/11 05:24:15;;;;;;;12.60;8.20;;;;;;;13.36;77.98;99722.11;103569;1276;138668;-70
2022/09/11 05:26:43;;;;;;;12.10;7.80;;;;;;;13.36;77.71;99718.22;103275;1277;94680;-69
2022/09/11 05:29:14;;;;;;;13.30;8.20;;;;;;;13.34;77.58;99715.41;103435;1276;138627;-71
2022/09/11 05:32:00;;;;;;;11.90;8.10;;;;;;;13.33;77.69;99719.18;103447;1276;99560;-67
2022/09/11 05:34:28;;;;;;;11.70;7.90;;;;;;;13.31;77.69;99719.88;103637;1276;109308;-68
2022/09/11 05:36:57;;;;;;;12.00;7.40;;;;;;;13.31;77.76;99718.44;103397;1277;138738;-68
2022/09/11 05:39:27;;;;;;;11.20;7.40;;;;;;;13.32;77.69;99720.17;103242;1277;95123;-68
2022/09/11 05:41:55;;;;;;;11.30;7.60;;;;;;;13.34;77.81;99720.79;103509;1276;138278;-69
2022/09/11 05:44:25;;;;;;;11.70;7.30;;;;;;;13.36;77.73;99721.59;103443;1276;99718;-68
2022/09/11 05:46:53;;;;;;;11.30;7.40;;;;;;;13.33;77.82;99721.88;103292;1277;138361;-69
2022/09/11 05:49:24;;;;;;;10.80;7.50;;;;;;;13.32;77.77;99721.02;103641;1277;94254;-66
2022/09/11 05:51:52;;;;;;;10.60;7.30;;;;;;;13.33;77.83;99719.41;103760;1276;95649;-69
2022/09/11 05:54:20;;;;;;;11.20;7.20;;;;;;;13.37;77.65;99721.55;103451;1276;138653;-68
2022/09/11 05:56:48;;;;;;;10.80;6.90;;;;;;;13.30;77.72;99718.27;103529;1277;99378;-69
2022/09/11 05:59:22;;;;;;;11.10;6.90;;;;;;;13.27;77.81;99720.77;103315;1277;139423;-69
2022/09/11 06:01:50;;;;;;;10.00;6.80;;;;;;;13.30;77.80;99720.98;103465;1277;94735;-68
2022/09/11 06:04:21;;;;;;;10.60;6.50;;;;;;;13.29;77.74;99724.77;103429;1276;95763;-70
2022/09/11 06:06:51;;;;;;;10.10;6.50;;;;;;;13.26;77.75;99729.20;103478;1276;138657;-68
2022/09/11 06:09:19;;;;;;;9.50;5.90;;;;;;;13.23;77.90;99732.15;103569;1276;99907;-68
2022/09/11 06:11:49;;;;;;;8.90;5.80;;;;;;;13.20;77.82;99729.43;103992;1276;138290;-68
2022/09/11 06:14:17;;;;;;;9.70;6.40;;;;;;;13.20;77.87;99727.50;103324;1277;94421;-68
2022/09/11 06:16:46;;;;;;;10.00;6.00;;;;;;;13.19;77.93;99730.59;103481;1276;94346;-69
2022/09/11 06:19:15;;;;;;;9.30;5.90;;;;;;;13.15;77.87;99731.11;103612;1276;108370;-68
2022/09/11 06:21:44;;;;;;;8.40;5.70;;;;;;;13.15;78.06;99730.95;103689;1276;98956;-71
2022/09/11 06:24:22;;;;;;;8.40;5.60;;;;;;;13.17;78.00;99728.34;103525;1277;138308;-70
2022/09/11 06:26:50;;;;;;;9.10;6.10;;;;;;;13.20;78.08;99727.48;103552;1276;94753;-69
2022/09/11 06:29:18;;;;;;;9.20;5.60;;;;;;;13.21;78.03;99724.41;103462;1277;138129;-69
2022/09/11 06:31:50;;;;;;;9.10;5.70;;;;;;;13.24;77.92;99723.39;103508;1276;109087;-70
2022/09/11 06:34:21;;;;;;;7.90;5.00;;;;;;;13.26;77.78;99726.86;103460;1276;98827;-71
2022/09/11 06:36:50;;;;;;;8.70;5.50;;;;;;;13.28;77.79;99727.46;103239;1277;138382;-68
2022/09/11 06:39:21;;;;;;;9.40;5.90;;;;;;;13.31;77.80;99727.67;103241;1277;94355;-67
2022/09/11 06:41:52;;;;;;;8.80;5.80;;;;;;;13.37;77.56;99724.40;103472;1277;138458;-68
2022/09/11 06:44:26;;;;;;;9.20;6.40;;;;;;;13.37;77.58;99722.98;103654;1277;108965;-69
2022/09/11 06:46:56;;;;;;;9.50;6.00;;;;;;;13.37;77.53;99725.12;103428;1276;138676;-68
2022/09/11 06:49:24;;;;;;;8.90;5.80;;;;;;;13.34;77.27;99728.23;103435;1276;107619;-68
2022/09/11 06:52:11;;;;;;;9.40;6.10;;;;;;;13.28;77.14;99726.41;103370;1277;94767;-69
2022/09/11 06:54:40;;;;;;;8.70;5.90;;;;;;;13.26;77.21;99730.07;103424;1276;137600;-69
2022/09/11 06:57:11;;;;;;;9.90;6.00;;;;;;;13.19;77.27;99729.67;103296;1277;108216;-69
2022/09/11 06:59:39;;;;;;;9.50;5.90;;;;;;;13.18;77.45;99730.44;103410;1276;138425;-68
2022/09/11 07:02:10;;;;;;;8.80;5.80;;;;;;;13.20;77.36;99728.91;103484;1275;109179;-68
2022/09/11 07:04:38;;;;;;;8.40;5.70;;;;;;;13.19;77.66;99731.98;103447;1277;94756;-69
2022/09/11 07:07:06;;;;;;;9.80;6.20;;;;;;;13.22;77.62;99730.45;103161;1277;137808;-68
2022/09/11 07:09:35;;;;;;;9.50;6.20;;;;;;;13.26;77.60;99729.92;103398;1276;108406;-68
2022/09/11 07:12:04;;;;;;;9.10;5.80;;;;;;;13.28;77.59;99729.81;103405;1276;138978;-70
2022/09/11 07:14:33;;;;;;;8.80;6.10;;;;;;;13.30;77.59;99731.14;103579;1276;108470;-68
2022/09/11 07:17:09;;;;;;;9.20;6.10;;;;;;;13.30;77.70;99729.86;103365;1276;137963;-68
2022/09/11 07:19:36;;;;;;;10.30;6.00;;;;;;;13.36;77.84;99727.79;103516;1277;94705;-69
2022/09/11 07:22:04;;;;;;;9.30;5.60;;;;;;;13.38;77.57;99727.17;103371;1277;108374;-69
2022/09/11 07:24:32;;;;;;;10.00;6.00;;;;;;;13.36;77.47;99728.01;103238;1277;138649;-69
2022/09/11 07:27:00;;;;;;;9.90;5.70;;;;;;;13.33;77.55;99728.81;103515;1277;108711;-69
2022/09/11 07:29:31;;;;;;;9.40;6.20;;;;;;;13.31;77.58;99725.55;103370;1275;139220;-71
2022/09/11 07:31:59;;;;;;;8.90;5.70;;;;;;;13.27;77.79;99725.23;103554;1276;94475;-69
2022/09/11 07:34:27;;;;;;;9.20;5.60;;;;;;;13.27;77.99;99723.27;103540;1277;108339;-70
2022/09/11 07:36:56;;;;;;;9.40;6.00;;;;;;;13.29;77.94;99723.14;103812;1276;137753;-68
2022/09/11 07:39:25;;;;;;;10.90;6.20;;;;;;;13.29;77.73;99722.43;103481;1277;106243;-70
2022/09/11 07:41:56;;;;;;;10.80;6.00;;;;;;;13.32;77.74;99721.42;103374;1277;138640;-67
2022/09/11 07:44:27;;;;;;;9.10;6.00;;;;;;;13.33;77.61;99727.44;103572;1276;94833;-69
2022/09/11 07:46:56;;;;;;;9.80;6.00;;;;;;;13.32;77.67;99728.36;103358;1276;137858;-68
2022/09/11 07:49:23;;;;;;;9.20;5.70;;;;;;;13.35;77.60;99727.30;103322;1277;99635;-69
2022/09/11 07:51:53;;;;;;;9.80;6.00;;;;;;;13.34;77.11;99732.55;103495;1276;108845;-72
2022/09/11 07:54:29;;;;;;;10.90;6.50;;;;;;;13.30;77.34;99730.94;103323;1276;138928;-70
2022/09/11 07:56:57;;;;;;;9.70;6.40;;;;;;;13.30;77.28;99728.09;103292;1277;94431;-68
2022/09/11 07:59:26;;;;;;;10.80;6.40;;;;;;;13.30;77.40;99727.59;103439;1277;138097;-68
2022/09/11 08:01:54;;;;;;;10.20;6.10;;;;;;;13.35;77.34;99732.16;103536;1276;99544;-69
2022/09/11 08:04:23;;;;;;;10.20;6.20;;;;;;;13.37;77.17;99732.05;103324;1277;108863;-69
2022/09/11 08:06:51;;;;;;;10.50;6.80;;;;;;;13.37;77.11;99732.57;103462;1277;137992;-68
2022/09/11 08:09:21;;;;;;;11.30;6.60;;;;;;;13.41;76.92;99730.11;103358;1276;94787;-68
2022/09/11 08:11:57;;;;;;;11.70;6.40;;;;;;;13.40;76.71;99730.67;103211;1277;138499;-71
2022/09/11 08:14:26;;;;;;;11.10;6.40;;;;;;;13.37;76.64;99731.89;103771;1277;100209;-69
2022/09/11 08:16:57;;;;;;;11.40;6.60;;;;;;;13.35;76.13;99730.36;103376;1277;141984;-70
2022/09/11 08:19:27;;;;;;;11.10;6.50;;;;;;;13.27;76.06;99728.95;103678;1276;94584;-68
2022/09/11 08:21:56;;;;;;;12.70;8.40;;;;;;;13.20;76.62;99731.06;103554;1276;94333;-68
2022/09/11 08:24:26;;;;;;;14.30;7.60;;;;;;;13.20;76.80;99730.89;103375;1277;138508;-70
2022/09/11 08:26:57;;;;;;;11.70;6.80;;;;;;;13.24;76.97;99727.69;103670;1276;98784;-68
2022/09/11 08:29:25;;;;;;;11.60;6.20;;;;;;;13.23;76.64;99730.60;103493;1277;137908;-68
2022/09/11 08:31:53;;;;;;;12.50;6.60;;;;;;;13.21;76.59;99732.97;103548;1277;94679;-69
2022/09/11 08:34:27;;;;;;;11.20;6.40;;;;;;;13.22;76.60;99730.60;103552;1276;95321;-68
2022/09/11 08:36:55;;;;;;;10.70;6.40;;;;;;;13.23;76.84;99733.94;103320;1276;139038;-70
2022/09/11 08:39:23;;;;;;;11.60;6.70;;;;;;;13.26;76.79;99734.16;103317;1279;99964;-70
2022/09/11 08:42:04;;;;;;;10.70;6.70;;;;;;;13.25;76.68;99732.60;103540;1276;137833;-69
2022/09/11 08:44:41;;;;;;;10.50;6.10;;;;;;;13.24;76.68;99734.09;103661;1276;94731;-69
2022/09/11 08:47:27;;;;;;;10.90;6.30;;;;;;;13.22;76.71;99735.04;103211;1277;138897;-69
2022/09/11 08:50:08;;;;;;;12.00;6.30;;;;;;;13.26;76.68;99732.73;103465;1277;108329;-68
2022/09/11 08:52:36;;;;;;;10.60;6.00;;;;;;;13.28;76.79;99734.44;103530;1277;99768;-68
2022/09/11 08:55:21;;;;;;;10.10;6.00;;;;;;;13.32;76.66;99732.45;103475;1276;139139;-68
2022/09/11 08:58:10;;;;;;;10.70;6.00;;;;;;;13.29;76.34;99736.68;103524;1276;95222;-70
2022/09/11 09:00:49;;;;;;;11.00;6.00;;;;;;;13.21;76.30;99739.95;103224;1277;138358;-69
2022/09/11 09:03:34;;;;;;;11.40;6.40;;;;;;;13.15;76.01;99737.54;103460;1276;108543;-68
2022/09/11 09:06:25;;;;;;;10.80;6.20;;;;;;;13.14;76.44;99741.34;103406;1277;138615;-69
2022/09/11 09:09:07;;;;;;;13.90;7.10;;;;;;;13.05;76.40;99744.23;103460;1276;108627;-68
2022/09/11 09:11:46;;;;;;;10.50;5.90;;;;;;;13.02;76.90;99743.34;103669;1277;138761;-69
2022/09/11 09:14:14;;;;;;;10.50;6.30;;;;;;;13.07;77.08;99743.64;103626;1277;94340;-70
2022/09/11 09:17:12;;;;;;;11.50;6.60;;;;;;;13.13;76.99;99745.85;103681;1276;107404;-70
2022/09/11 09:19:47;;;;;;;10.50;6.40;;;;;;;13.12;76.96;99747.11;103657;1277;98501;-65
2022/09/11 09:22:42;;;;;;;9.40;5.90;;;;;;;13.12;77.02;99747.15;103674;1277;108766;-69
2022/09/11 09:25:13;;;;;;;10.30;6.20;;;;;;;13.07;77.13;99750.58;103402;1277;137302;-68
2022/09/11 09:27:49;;;;;;;11.40;6.30;;;;;;;13.06;77.28;99749.15;103652;1276;94312;-69
2022/09/11 09:30:26;;;;;;;10.20;5.80;;;;;;;13.06;77.42;99750.61;103301;1277;138131;-67
2022/09/11 09:32:57;;;;;;;8.60;4.70;;;;;;;13.07;77.31;99755.02;103640;1277;98159;-68
2022/09/11 09:35:43;;;;;;;9.80;5.20;;;;;;;13.07;77.05;99756.27;103380;1277;138875;-69
2022/09/11 09:38:18;;;;;;;7.20;4.00;;;;;;;13.07;76.52;99760.36;103548;1277;94823;-68
2022/09/11 09:41:15;;;;;;;13.10;8.90;;;;;;;12.97;75.00;99766.73;103493;1277;138270;-69
2022/09/11 09:44:07;;;;;;;9.40;5.20;;;;;;;12.87;75.56;99763.81;103634;1276;107650;-67
2022/09/11 09:46:43;;;;;;;6.60;3.70;;;;;;;12.81;75.43;99769.59;103617;1277;99755;-67
2022/09/11 09:49:25;;;;;;;6.50;3.50;;;;;;;12.78;75.28;99770.80;103569;1276;108902;-69
2022/09/11 09:51:55;;;;;;;6.80;3.20;;;;;;;12.69;74.90;99777.41;103578;1277;94592;-68
2022/09/11 09:54:35;;;;;;;6.10;3.20;;;;;;;12.63;75.13;99777.36;103375;1276;138140;-68
2022/09/11 09:57:09;;;;;;;6.60;2.80;;;;;;;12.64;75.06;99778.73;103770;1276;108572;-68
2022/09/11 09:59:44;;;;;;;6.60;3.10;;;;;;;12.63;74.81;99781.59;103496;1276;138901;-67
2022/09/11 10:02:12;;;;;;;5.50;2.80;;;;;;;12.56;74.45;99780.69;103411;1277;109023;-68
2022/09/11 10:04:40;;;;;;;7.10;3.00;;;;;;;12.52;74.69;99776.93;103476;1277;96230;-69
2022/09/11 10:07:11;;;;;;;6.50;3.50;;;;;;;12.58;74.94;99774.02;103665;1276;138207;-68
2022/09/11 10:09:48;;;;;;;8.40;3.80;;;;;;;12.64;74.81;99771.09;103763;1277;108434;-67
2022/09/11 10:12:26;;;;;;;6.70;3.40;;;;;;;12.67;74.98;99765.24;103574;1276;138124;-69
2022/09/11 10:15:00;;;;;;;6.70;3.30;;;;;;;12.70;75.02;99762.77;103676;1276;108888;-69
2022/09/11 10:17:31;;;;;;;6.90;3.30;;;;;;;12.77;75.04;99762.82;103711;1277;138256;-68
2022/09/11 10:20:14;;;;;;;6.40;3.40;;;;;;;12.82;74.94;99761.52;103612;1276;94231;-68
2022/09/11 10:22:42;;;;;;;7.20;3.50;;;;;;;12.88;75.09;99760.34;103593;1276;107455;-70
2022/09/11 10:25:12;;;;;;;7.30;3.20;;;;;;;12.97;75.37;99766.00;103316;1277;138597;-68
2022/09/11 10:28:00;;;;;;;7.30;4.00;;;;;;;13.06;75.03;99763.44;103530;1276;109130;-69
2022/09/11 10:30:38;;;;;;;8.20;3.80;;;;;;;13.18;74.94;99765.20;103308;1277;139120;-66
2022/09/11 10:33:19;;;;;;;8.40;3.50;;;;;;;13.25;74.65;99765.95;103372;1277;94827;-68
2022/09/11 10:35:56;;;;;;;6.50;3.40;;;;;;;13.27;74.32;99765.68;103514;1276;138278;-67
2022/09/11 10:38:50;;;;;;;7.30;3.50;;;;;;;13.37;74.45;99768.96;103625;1276;99810;-67
2022/09/11 10:41:21;;;;;;;7.70;3.90;;;;;;;13.40;74.08;99765.44;103437;1276;138597;-66
2022/09/11 10:43:54;;;;;;;7.90;3.80;;;;;;;13.40;74.44;99763.84;103310;1277;94276;-67
2022/09/11 10:46:42;;;;;;;7.90;4.00;;;;;;;13.41;74.60;99766.63;103560;1277;94742;-67
2022/09/11 10:49:10;;;;;;;8.20;4.00;;;;;;;13.52;74.78;99763.79;103544;1277;138105;-68
2022/09/11 10:51:40;;;;;;;8.40;3.90;;;;;;;13.57;74.51;99757.48;103603;1276;98270;-67
2022/09/11 10:54:29;;;;;;;9.10;4.40;;;;;;;13.54;74.42;99748.36;103406;1277;137627;-67
2022/09/11 10:57:19;;;;;;;8.60;4.40;;;;;;;13.58;74.76;99743.75;103559;1276;94320;-67
2022/09/11 11:00:09;;;;;;;8.10;4.20;;;;;;;13.66;74.72;99743.30;103429;1277;141167;-67
2022/09/11 11:02:44;;;;;;;8.20;4.40;;;;;;;13.80;74.71;99740.83;103552;1277;107297;-67
2022/09/11 11:05:18;;;;;;;9.10;5.00;;;;;;;13.89;74.50;99736.27;103691;1277;139251;-67
2022/09/11 11:08:14;;;;;;;9.40;4.60;;;;;;;13.91;74.17;99733.52;103512;1277;109110;-68
2022/09/11 11:11:13;;;;;;;8.90;4.80;;;;;;;14.02;74.28;99727.77;103626;1276;95197;-68
2022/09/11 11:14:12;;;;;;;10.40;5.10;;;;;;;14.20;74.37;99727.55;103609;1277;94730;-67
2022/09/11 11:16:39;;;;;;;9.10;4.90;;;;;;;14.32;73.89;99726.93;103924;1277;108399;-68
2022/09/11 11:19:33;;;;;;;8.70;4.90;;;;;;;14.40;73.68;99728.10;103341;1276;138039;-67
2022/09/11 11:22:13;;;;;;;10.30;5.40;;;;;;;14.52;73.39;99725.16;103778;1277;108894;-67
2022/09/11 11:25:00;;;;;;;10.10;5.40;;;;;;;14.57;73.17;99720.42;103511;1276;138719;-67
2022/09/11 11:27:42;;;;;;;10.50;5.70;;;;;;;14.62;72.64;99723.56;103625;1277;94806;-67
2022/09/11 11:30:22;;;;;;;10.70;5.30;;;;;;;14.68;73.15;99725.05;103563;1277;138144;-68
2022/09/11 11:33:41;;;;;;;12.10;5.80;;;;;;;14.79;73.13;99721.93;103581;1277;100256;-67
2022/09/11 11:36:26;;;;;;;11.50;6.20;;;;;;;14.92;72.90;99723.93;102818;1282;138142;-67
2022/09/11 11:39:11;;;;;;;11.90;6.00;;;;;;;14.93;72.10;99721.89;103693;1277;94782;-66
2022/09/11 11:41:44;;;;;;;10.40;5.60;;;;;;;14.94;72.19;99720.26;103450;1276;139993;-67
2022/09/11 11:44:26;;;;;;;10.10;5.90;;;;;;;14.88;71.43;99725.05;103639;1277;108171;-67
2022/09/11 11:46:59;;;;;;;11.50;6.10;;;;;;;14.84;71.78;99726.15;103579;1276;138348;-66